sensor_id;sensor_type;location;lat;lon;timestamp;P1;durP1;ratioP1;P2;durP2;ratioP2
66118;SDS011;52912;48.564;9.302;2022-12-05T00:01:10;18.15;;;10.18;;
66118;SDS011;52912;48.564;9.302;2022-12-05T00:03:37;19.67;;;10.27;;
66118;SDS011;52912;48.564;9.302;2022-12-05T00:06:02;18.05;;;9.82;;
66118;SDS011;52912;48.564;9.302;2022-12-05T00:08:30;20.00;;;10.55;;
66118;SDS011;52912;48.564;9.302;2022-12-05T00:10:55;20.88;;;9.82;;
66118;SDS011;52912;48.564;9.302;2022-12-05T00:13:20;24.25;;;10.70;;
66118;SDS011;52912;48.564;9.302;2022-12-05T00:15:46;21.38;;;10.68;;
66118;SDS011;52912;48.564;9.302;2022-12-05T00:18:11;20.92;;;10.48;;
66118;SDS011;52912;48.564;9.302;2022-12-05T00:20:42;18.15;;;8.88;;
66118;SDS011;52912;48.564;9.302;2022-12-05T00:23:08;20.40;;;9.95;;
66118;SDS011;52912;48.564;9.302;2022-12-05T00:25:36;17.25;;;9.48;;
66118;SDS011;52912;48.564;9.302;2022-12-05T00:28:01;17.67;;;8.68;;
66118;SDS011;52912;48.564;9.302;2022-12-05T00:30:27;16.60;;;9.15;;
66118;SDS011;52912;48.564;9.302;2022-12-05T00:32:52;21.45;;;9.23;;
66118;SDS011;52912;48.564;9.302;2022-12-05T00:35:17;16.50;;;8.98;;
66118;SDS011;52912;48.564;9.302;2022-12-05T00:37:43;17.23;;;9.32;;
66118;SDS011;52912;48.564;9.302;2022-12-05T00:40:09;18.05;;;8.88;;
66118;SDS011;52912;48.564;9.302;2022-12-05T00:42:36;16.98;;;9.00;;
66118;SDS011;52912;48.564;9.302;2022-12-05T00:45:01;20.15;;;8.93;;
66118;SDS011;52912;48.564;9.302;2022-12-05T00:47:27;20.33;;;10.00;;
66118;SDS011;52912;48.564;9.302;2022-12-05T00:49:52;18.33;;;8.77;;
66118;SDS011;52912;48.564;9.302;2022-12-05T00:52:18;15.02;;;8.80;;
66118;SDS011;52912;48.564;9.302;2022-12-05T00:54:43;18.25;;;9.30;;
66118;SDS011;52912;48.564;9.302;2022-12-05T00:57:09;17.55;;;9.00;;
66118;SDS011;52912;48.564;9.302;2022-12-05T00:59:35;20.02;;;8.88;;
66118;SDS011;52912;48.564;9.302;2022-12-05T01:02:01;21.00;;;9.68;;
66118;SDS011;52912;48.564;9.302;2022-12-05T01:04:26;17.95;;;9.90;;
66118;SDS011;52912;48.564;9.302;2022-12-05T01:06:53;17.58;;;9.40;;
66118;SDS011;52912;48.564;9.302;2022-12-05T01:09:19;18.45;;;8.35;;
66118;SDS011;52912;48.564;9.302;2022-12-05T01:11:45;18.85;;;9.10;;
66118;SDS011;52912;48.564;9.302;2022-12-05T01:14:12;15.75;;;8.63;;
66118;SDS011;52912;48.564;9.302;2022-12-05T01:16:41;17.77;;;9.10;;
66118;SDS011;52912;48.564;9.302;2022-12-05T01:19:10;21.02;;;9.57;;
66118;SDS011;52912;48.564;9.302;2022-12-05T01:21:36;20.40;;;10.23;;
66118;SDS011;52912;48.564;9.302;2022-12-05T01:24:02;18.63;;;8.55;;
66118;SDS011;52912;48.564;9.302;2022-12-05T01:26:28;19.35;;;9.90;;
66118;SDS011;52912;48.564;9.302;2022-12-05T01:28:53;18.52;;;9.90;;
66118;SDS011;52912;48.564;9.302;2022-12-05T01:31:20;23.13;;;12.65;;
66118;SDS011;52912;48.564;9.302;2022-12-05T01:33:49;24.08;;;13.32;;
66118;SDS011;52912;48.564;9.302;2022-12-05T01:36:15;26.90;;;16.50;;
66118;SDS011;52912;48.564;9.302;2022-12-05T01:38:41;24.00;;;13.65;;
66118;SDS011;52912;48.564;9.302;2022-12-05T01:41:08;42.40;;;23.88;;
66118;SDS011;52912;48.564;9.302;2022-12-05T01:46:20;21.33;;;10.85;;
66118;SDS011;52912;48.564;9.302;2022-12-05T01:48:45;21.63;;;10.00;;
66118;SDS011;52912;48.564;9.302;2022-12-05T01:51:13;18.48;;;9.50;;
66118;SDS011;52912;48.564;9.302;2022-12-05T01:53:38;22.38;;;11.23;;
66118;SDS011;52912;48.564;9.302;2022-12-05T01:56:04;36.55;;;19.08;;
66118;SDS011;52912;48.564;9.302;2022-12-05T01:58:31;31.08;;;13.57;;
66118;SDS011;52912;48.564;9.302;2022-12-05T02:00:59;33.08;;;18.35;;
66118;SDS011;52912;48.564;9.302;2022-12-05T02:03:25;49.17;;;27.88;;
66118;SDS011;52912;48.564;9.302;2022-12-05T02:05:51;35.45;;;16.77;;
66118;SDS011;52912;48.564;9.302;2022-12-05T02:08:19;23.98;;;12.95;;
66118;SDS011;52912;48.564;9.302;2022-12-05T02:10:48;20.77;;;10.25;;
66118;SDS011;52912;48.564;9.302;2022-12-05T02:13:20;30.17;;;11.20;;
66118;SDS011;52912;48.564;9.302;2022-12-05T02:15:54;22.52;;;10.52;;
66118;SDS011;52912;48.564;9.302;2022-12-05T02:18:27;22.73;;;11.13;;
66118;SDS011;52912;48.564;9.302;2022-12-05T02:21:12;29.70;;;15.82;;
66118;SDS011;52912;48.564;9.302;2022-12-05T02:24:26;38.97;;;24.60;;
66118;SDS011;52912;48.564;9.302;2022-12-05T02:27:12;26.80;;;13.25;;
66118;SDS011;52912;48.564;9.302;2022-12-05T02:29:54;58.85;;;26.35;;
66118;SDS011;52912;48.564;9.302;2022-12-05T02:32:34;28.45;;;12.35;;
66118;SDS011;52912;48.564;9.302;2022-12-05T02:35:07;22.00;;;10.95;;
66118;SDS011;52912;48.564;9.302;2022-12-05T02:37:39;25.02;;;12.93;;
66118;SDS011;52912;48.564;9.302;2022-12-05T02:40:11;24.35;;;12.30;;
66118;SDS011;52912;48.564;9.302;2022-12-05T02:42:40;32.38;;;14.73;;
66118;SDS011;52912;48.564;9.302;2022-12-05T02:45:21;26.52;;;12.50;;
66118;SDS011;52912;48.564;9.302;2022-12-05T02:47:50;22.58;;;11.13;;
66118;SDS011;52912;48.564;9.302;2022-12-05T02:50:18;20.48;;;10.13;;
66118;SDS011;52912;48.564;9.302;2022-12-05T02:52:47;23.45;;;12.55;;
66118;SDS011;52912;48.564;9.302;2022-12-05T02:55:14;39.65;;;18.55;;
66118;SDS011;52912;48.564;9.302;2022-12-05T02:57:42;23.45;;;12.10;;
66118;SDS011;52912;48.564;9.302;2022-12-05T03:00:12;22.55;;;10.93;;
66118;SDS011;52912;48.564;9.302;2022-12-05T03:02:40;21.08;;;10.65;;
66118;SDS011;52912;48.564;9.302;2022-12-05T03:05:08;26.20;;;10.10;;
66118;SDS011;52912;48.564;9.302;2022-12-05T03:07:41;19.58;;;10.23;;
66118;SDS011;52912;48.564;9.302;2022-12-05T03:10:10;23.65;;;9.98;;
66118;SDS011;52912;48.564;9.302;2022-12-05T03:12:39;21.52;;;9.23;;
66118;SDS011;52912;48.564;9.302;2022-12-05T03:15:10;21.15;;;10.02;;
66118;SDS011;52912;48.564;9.302;2022-12-05T03:17:40;17.05;;;9.02;;
66118;SDS011;52912;48.564;9.302;2022-12-05T03:20:12;17.33;;;8.80;;
66118;SDS011;52912;48.564;9.302;2022-12-05T03:22:45;15.90;;;8.45;;
66118;SDS011;52912;48.564;9.302;2022-12-05T03:25:16;17.20;;;8.20;;
66118;SDS011;52912;48.564;9.302;2022-12-05T03:27:44;18.88;;;8.93;;
66118;SDS011;52912;48.564;9.302;2022-12-05T03:30:13;18.83;;;9.02;;
66118;SDS011;52912;48.564;9.302;2022-12-05T03:32:44;22.85;;;9.48;;
66118;SDS011;52912;48.564;9.302;2022-12-05T03:35:17;19.55;;;9.13;;
66118;SDS011;52912;48.564;9.302;2022-12-05T03:37:48;15.60;;;8.70;;
66118;SDS011;52912;48.564;9.302;2022-12-05T03:40:25;17.88;;;8.90;;
66118;SDS011;52912;48.564;9.302;2022-12-05T03:42:57;17.38;;;8.82;;
66118;SDS011;52912;48.564;9.302;2022-12-05T03:45:30;19.98;;;8.00;;
66118;SDS011;52912;48.564;9.302;2022-12-05T03:48:05;16.55;;;7.72;;
66118;SDS011;52912;48.564;9.302;2022-12-05T03:50:36;15.68;;;7.53;;
66118;SDS011;52912;48.564;9.302;2022-12-05T03:53:04;16.73;;;7.75;;
66118;SDS011;52912;48.564;9.302;2022-12-05T03:55:34;17.63;;;8.43;;
66118;SDS011;52912;48.564;9.302;2022-12-05T03:58:04;28.52;;;13.60;;
66118;SDS011;52912;48.564;9.302;2022-12-05T04:00:34;28.55;;;14.70;;
66118;SDS011;52912;48.564;9.302;2022-12-05T04:03:06;29.13;;;14.23;;
66118;SDS011;52912;48.564;9.302;2022-12-05T04:05:35;22.75;;;11.82;;
66118;SDS011;52912;48.564;9.302;2022-12-05T04:08:09;16.13;;;8.30;;
66118;SDS011;52912;48.564;9.302;2022-12-05T04:10:36;17.98;;;8.32;;
66118;SDS011;52912;48.564;9.302;2022-12-05T04:13:05;16.33;;;8.57;;
66118;SDS011;52912;48.564;9.302;2022-12-05T04:15:30;16.70;;;8.20;;
66118;SDS011;52912;48.564;9.302;2022-12-05T04:17:57;12.40;;;6.97;;
66118;SDS011;52912;48.564;9.302;2022-12-05T04:20:26;13.50;;;7.40;;
66118;SDS011;52912;48.564;9.302;2022-12-05T04:22:56;14.80;;;7.10;;
66118;SDS011;52912;48.564;9.302;2022-12-05T04:25:23;16.67;;;7.72;;
66118;SDS011;52912;48.564;9.302;2022-12-05T04:27:53;13.80;;;6.55;;
66118;SDS011;52912;48.564;9.302;2022-12-05T04:30:24;12.45;;;7.13;;
66118;SDS011;52912;48.564;9.302;2022-12-05T04:32:57;13.52;;;6.88;;
66118;SDS011;52912;48.564;9.302;2022-12-05T04:35:28;18.65;;;8.68;;
66118;SDS011;52912;48.564;9.302;2022-12-05T04:37:57;13.73;;;6.97;;
66118;SDS011;52912;48.564;9.302;2022-12-05T04:40:27;13.38;;;6.93;;
66118;SDS011;52912;48.564;9.302;2022-12-05T04:42:56;11.70;;;6.53;;
66118;SDS011;52912;48.564;9.302;2022-12-05T04:45:23;13.30;;;6.32;;
66118;SDS011;52912;48.564;9.302;2022-12-05T04:47:50;12.25;;;6.00;;
66118;SDS011;52912;48.564;9.302;2022-12-05T04:50:19;12.00;;;6.60;;
66118;SDS011;52912;48.564;9.302;2022-12-05T04:52:49;11.00;;;6.00;;
66118;SDS011;52912;48.564;9.302;2022-12-05T04:55:19;11.32;;;6.18;;
66118;SDS011;52912;48.564;9.302;2022-12-05T04:57:48;13.45;;;6.22;;
66118;SDS011;52912;48.564;9.302;2022-12-05T05:00:17;11.07;;;6.07;;
66118;SDS011;52912;48.564;9.302;2022-12-05T05:02:44;11.98;;;6.05;;
66118;SDS011;52912;48.564;9.302;2022-12-05T05:05:14;15.25;;;5.90;;
66118;SDS011;52912;48.564;9.302;2022-12-05T05:07:43;12.52;;;6.40;;
66118;SDS011;52912;48.564;9.302;2022-12-05T05:10:10;11.77;;;6.43;;
66118;SDS011;52912;48.564;9.302;2022-12-05T05:12:39;11.15;;;6.60;;
66118;SDS011;52912;48.564;9.302;2022-12-05T05:15:04;11.40;;;5.45;;
66118;SDS011;52912;48.564;9.302;2022-12-05T05:17:30;12.90;;;5.90;;
66118;SDS011;52912;48.564;9.302;2022-12-05T05:19:56;13.02;;;6.50;;
66118;SDS011;52912;48.564;9.302;2022-12-05T05:22:21;13.45;;;6.75;;
66118;SDS011;52912;48.564;9.302;2022-12-05T05:24:47;12.32;;;6.85;;
66118;SDS011;52912;48.564;9.302;2022-12-05T05:27:13;14.25;;;6.90;;
66118;SDS011;52912;48.564;9.302;2022-12-05T05:29:39;12.93;;;6.55;;
66118;SDS011;52912;48.564;9.302;2022-12-05T05:32:04;11.60;;;6.30;;
66118;SDS011;52912;48.564;9.302;2022-12-05T05:34:30;12.05;;;6.50;;
66118;SDS011;52912;48.564;9.302;2022-12-05T05:36:55;11.30;;;6.20;;
66118;SDS011;52912;48.564;9.302;2022-12-05T05:39:21;13.10;;;6.75;;
66118;SDS011;52912;48.564;9.302;2022-12-05T05:41:46;11.68;;;6.57;;
66118;SDS011;52912;48.564;9.302;2022-12-05T05:44:13;14.05;;;6.28;;
66118;SDS011;52912;48.564;9.302;2022-12-05T05:46:38;13.75;;;6.90;;
66118;SDS011;52912;48.564;9.302;2022-12-05T05:49:04;12.30;;;6.80;;
66118;SDS011;52912;48.564;9.302;2022-12-05T05:51:29;14.50;;;6.72;;
66118;SDS011;52912;48.564;9.302;2022-12-05T05:53:55;13.20;;;6.53;;
66118;SDS011;52912;48.564;9.302;2022-12-05T05:56:22;12.15;;;6.70;;
66118;SDS011;52912;48.564;9.302;2022-12-05T05:58:48;12.13;;;6.22;;
66118;SDS011;52912;48.564;9.302;2022-12-05T06:01:20;12.05;;;6.53;;
66118;SDS011;52912;48.564;9.302;2022-12-05T06:03:46;12.38;;;6.53;;
66118;SDS011;52912;48.564;9.302;2022-12-05T06:06:12;12.82;;;7.00;;
66118;SDS011;52912;48.564;9.302;2022-12-05T06:08:39;11.25;;;6.15;;
66118;SDS011;52912;48.564;9.302;2022-12-05T06:11:06;13.52;;;7.18;;
66118;SDS011;52912;48.564;9.302;2022-12-05T06:13:33;12.23;;;6.65;;
66118;SDS011;52912;48.564;9.302;2022-12-05T06:15:59;11.60;;;5.95;;
66118;SDS011;52912;48.564;9.302;2022-12-05T06:18:26;13.48;;;6.57;;
66118;SDS011;52912;48.564;9.302;2022-12-05T06:20:52;12.13;;;7.53;;
66118;SDS011;52912;48.564;9.302;2022-12-05T06:23:17;8.95;;;5.13;;
66118;SDS011;52912;48.564;9.302;2022-12-05T06:25:45;11.10;;;6.55;;
66118;SDS011;52912;48.564;9.302;2022-12-05T06:28:11;13.82;;;6.47;;
66118;SDS011;52912;48.564;9.302;2022-12-05T06:30:37;15.68;;;7.28;;
66118;SDS011;52912;48.564;9.302;2022-12-05T06:33:03;16.83;;;8.27;;
66118;SDS011;52912;48.564;9.302;2022-12-05T06:35:30;13.85;;;8.23;;
66118;SDS011;52912;48.564;9.302;2022-12-05T06:37:55;15.18;;;8.10;;
66118;SDS011;52912;48.564;9.302;2022-12-05T06:40:21;19.17;;;9.00;;
66118;SDS011;52912;48.564;9.302;2022-12-05T06:42:46;19.67;;;9.82;;
66118;SDS011;52912;48.564;9.302;2022-12-05T06:45:12;16.23;;;8.02;;
66118;SDS011;52912;48.564;9.302;2022-12-05T06:47:37;16.20;;;8.70;;
66118;SDS011;52912;48.564;9.302;2022-12-05T06:50:03;20.60;;;10.32;;
66118;SDS011;52912;48.564;9.302;2022-12-05T06:52:30;17.80;;;9.40;;
66118;SDS011;52912;48.564;9.302;2022-12-05T06:54:56;16.63;;;8.57;;
66118;SDS011;52912;48.564;9.302;2022-12-05T06:57:21;17.90;;;9.02;;
66118;SDS011;52912;48.564;9.302;2022-12-05T06:59:47;14.27;;;8.18;;
66118;SDS011;52912;48.564;9.302;2022-12-05T07:02:12;14.25;;;6.53;;
66118;SDS011;52912;48.564;9.302;2022-12-05T07:04:38;16.55;;;6.75;;
66118;SDS011;52912;48.564;9.302;2022-12-05T07:07:03;12.70;;;6.55;;
66118;SDS011;52912;48.564;9.302;2022-12-05T07:09:30;15.55;;;8.00;;
66118;SDS011;52912;48.564;9.302;2022-12-05T07:11:56;20.20;;;9.80;;
66118;SDS011;52912;48.564;9.302;2022-12-05T07:14:21;23.25;;;12.25;;
66118;SDS011;52912;48.564;9.302;2022-12-05T07:16:47;23.83;;;14.95;;
66118;SDS011;52912;48.564;9.302;2022-12-05T07:19:13;21.85;;;12.85;;
66118;SDS011;52912;48.564;9.302;2022-12-05T07:21:38;18.48;;;8.98;;
66118;SDS011;52912;48.564;9.302;2022-12-05T07:24:04;16.42;;;9.38;;
66118;SDS011;52912;48.564;9.302;2022-12-05T07:26:31;20.17;;;10.27;;
66118;SDS011;52912;48.564;9.302;2022-12-05T07:28:56;23.08;;;10.98;;
66118;SDS011;52912;48.564;9.302;2022-12-05T07:31:22;33.42;;;17.00;;
66118;SDS011;52912;48.564;9.302;2022-12-05T07:33:47;21.38;;;11.80;;
66118;SDS011;52912;48.564;9.302;2022-12-05T07:36:14;22.95;;;11.07;;
66118;SDS011;52912;48.564;9.302;2022-12-05T07:38:41;23.63;;;12.32;;
66118;SDS011;52912;48.564;9.302;2022-12-05T07:41:09;37.42;;;15.77;;
66118;SDS011;52912;48.564;9.302;2022-12-05T07:43:39;32.33;;;14.82;;
66118;SDS011;52912;48.564;9.302;2022-12-05T07:46:05;64.38;;;25.05;;
66118;SDS011;52912;48.564;9.302;2022-12-05T07:48:32;98.18;;;32.00;;
66118;SDS011;52912;48.564;9.302;2022-12-05T07:50:58;87.05;;;30.55;;
66118;SDS011;52912;48.564;9.302;2022-12-05T07:53:24;32.53;;;15.50;;
66118;SDS011;52912;48.564;9.302;2022-12-05T07:55:49;26.25;;;12.07;;
66118;SDS011;52912;48.564;9.302;2022-12-05T07:58:15;16.40;;;9.10;;
66118;SDS011;52912;48.564;9.302;2022-12-05T08:00:42;14.52;;;8.43;;
66118;SDS011;52912;48.564;9.302;2022-12-05T08:03:07;18.77;;;9.98;;
66118;SDS011;52912;48.564;9.302;2022-12-05T08:05:32;18.02;;;9.68;;
66118;SDS011;52912;48.564;9.302;2022-12-05T08:07:58;25.25;;;13.05;;
66118;SDS011;52912;48.564;9.302;2022-12-05T08:10:23;23.67;;;11.55;;
66118;SDS011;52912;48.564;9.302;2022-12-05T08:12:49;23.58;;;11.35;;
66118;SDS011;52912;48.564;9.302;2022-12-05T08:15:14;24.05;;;10.80;;
66118;SDS011;52912;48.564;9.302;2022-12-05T08:17:41;16.35;;;8.57;;
66118;SDS011;52912;48.564;9.302;2022-12-05T08:20:07;14.65;;;7.75;;
66118;SDS011;52912;48.564;9.302;2022-12-05T08:22:33;13.95;;;8.00;;
66118;SDS011;52912;48.564;9.302;2022-12-05T08:24:58;13.20;;;7.55;;
66118;SDS011;52912;48.564;9.302;2022-12-05T08:27:24;19.27;;;11.13;;
66118;SDS011;52912;48.564;9.302;2022-12-05T08:29:49;16.85;;;10.60;;
66118;SDS011;52912;48.564;9.302;2022-12-05T08:32:15;16.05;;;8.88;;
66118;SDS011;52912;48.564;9.302;2022-12-05T08:34:42;13.85;;;7.93;;
66118;SDS011;52912;48.564;9.302;2022-12-05T08:37:07;14.05;;;7.88;;
66118;SDS011;52912;48.564;9.302;2022-12-05T08:39:33;13.63;;;7.35;;
66118;SDS011;52912;48.564;9.302;2022-12-05T08:41:58;14.68;;;8.68;;
66118;SDS011;52912;48.564;9.302;2022-12-05T08:44:24;14.32;;;7.93;;
66118;SDS011;52912;48.564;9.302;2022-12-05T08:46:50;14.07;;;8.20;;
66118;SDS011;52912;48.564;9.302;2022-12-05T08:49:15;17.02;;;8.13;;
66118;SDS011;52912;48.564;9.302;2022-12-05T08:51:43;14.88;;;8.70;;
66118;SDS011;52912;48.564;9.302;2022-12-05T08:54:09;14.68;;;9.95;;
66118;SDS011;52912;48.564;9.302;2022-12-05T08:56:35;15.52;;;9.40;;
66118;SDS011;52912;48.564;9.302;2022-12-05T08:59:00;20.83;;;11.23;;
66118;SDS011;52912;48.564;9.302;2022-12-05T09:01:27;17.50;;;9.43;;
66118;SDS011;52912;48.564;9.302;2022-12-05T09:03:53;16.55;;;9.73;;
66118;SDS011;52912;48.564;9.302;2022-12-05T09:06:19;16.50;;;8.60;;
66118;SDS011;52912;48.564;9.302;2022-12-05T09:08:48;20.83;;;10.07;;
66118;SDS011;52912;48.564;9.302;2022-12-05T09:11:18;17.33;;;9.57;;
66118;SDS011;52912;48.564;9.302;2022-12-05T09:13:45;16.45;;;9.20;;
66118;SDS011;52912;48.564;9.302;2022-12-05T09:16:11;16.33;;;9.60;;
66118;SDS011;52912;48.564;9.302;2022-12-05T09:18:38;17.40;;;9.55;;
66118;SDS011;52912;48.564;9.302;2022-12-05T09:21:04;17.08;;;9.68;;
66118;SDS011;52912;48.564;9.302;2022-12-05T09:23:30;19.10;;;10.25;;
66118;SDS011;52912;48.564;9.302;2022-12-05T09:25:57;24.02;;;12.18;;
66118;SDS011;52912;48.564;9.302;2022-12-05T09:28:23;22.73;;;12.07;;
66118;SDS011;52912;48.564;9.302;2022-12-05T09:30:54;18.98;;;10.93;;
66118;SDS011;52912;48.564;9.302;2022-12-05T09:33:20;19.52;;;10.70;;
66118;SDS011;52912;48.564;9.302;2022-12-05T09:35:46;19.65;;;11.00;;
66118;SDS011;52912;48.564;9.302;2022-12-05T09:38:11;18.23;;;11.32;;
66118;SDS011;52912;48.564;9.302;2022-12-05T09:40:37;19.90;;;11.15;;
66118;SDS011;52912;48.564;9.302;2022-12-05T09:43:07;25.30;;;10.70;;
66118;SDS011;52912;48.564;9.302;2022-12-05T09:45:42;17.38;;;9.85;;
66118;SDS011;52912;48.564;9.302;2022-12-05T09:48:15;18.27;;;9.75;;
66118;SDS011;52912;48.564;9.302;2022-12-05T09:50:45;17.55;;;9.50;;
66118;SDS011;52912;48.564;9.302;2022-12-05T09:53:15;15.65;;;9.07;;
66118;SDS011;52912;48.564;9.302;2022-12-05T09:55:52;15.57;;;9.00;;
66118;SDS011;52912;48.564;9.302;2022-12-05T09:58:24;17.75;;;9.20;;
66118;SDS011;52912;48.564;9.302;2022-12-05T10:00:53;26.83;;;12.05;;
66118;SDS011;52912;48.564;9.302;2022-12-05T10:03:25;16.27;;;9.18;;
66118;SDS011;52912;48.564;9.302;2022-12-05T10:05:56;23.85;;;12.23;;
66118;SDS011;52912;48.564;9.302;2022-12-05T10:08:35;23.83;;;11.25;;
66118;SDS011;52912;48.564;9.302;2022-12-05T10:11:09;16.42;;;9.15;;
66118;SDS011;52912;48.564;9.302;2022-12-05T10:13:44;19.83;;;9.70;;
66118;SDS011;52912;48.564;9.302;2022-12-05T10:16:17;17.88;;;9.40;;
66118;SDS011;52912;48.564;9.302;2022-12-05T10:18:48;15.55;;;8.23;;
66118;SDS011;52912;48.564;9.302;2022-12-05T10:21:17;25.90;;;11.35;;
66118;SDS011;52912;48.564;9.302;2022-12-05T10:23:50;19.02;;;9.50;;
66118;SDS011;52912;48.564;9.302;2022-12-05T10:26:18;16.58;;;9.30;;
66118;SDS011;52912;48.564;9.302;2022-12-05T10:28:49;19.05;;;8.43;;
66118;SDS011;52912;48.564;9.302;2022-12-05T10:31:21;15.65;;;8.45;;
66118;SDS011;52912;48.564;9.302;2022-12-05T10:33:52;22.92;;;11.18;;
66118;SDS011;52912;48.564;9.302;2022-12-05T10:36:22;20.63;;;9.63;;
66118;SDS011;52912;48.564;9.302;2022-12-05T10:38:49;14.95;;;8.00;;
66118;SDS011;52912;48.564;9.302;2022-12-05T10:41:14;14.90;;;8.50;;
66118;SDS011;52912;48.564;9.302;2022-12-05T10:43:41;17.08;;;9.50;;
66118;SDS011;52912;48.564;9.302;2022-12-05T10:46:10;15.48;;;9.02;;
66118;SDS011;52912;48.564;9.302;2022-12-05T10:48:37;13.25;;;7.32;;
66118;SDS011;52912;48.564;9.302;2022-12-05T10:51:04;12.73;;;7.85;;
66118;SDS011;52912;48.564;9.302;2022-12-05T10:53:34;15.35;;;8.88;;
66118;SDS011;52912;48.564;9.302;2022-12-05T10:56:04;12.70;;;7.97;;
66118;SDS011;52912;48.564;9.302;2022-12-05T10:59:00;13.15;;;7.53;;
66118;SDS011;52912;48.564;9.302;2022-12-05T11:01:27;16.38;;;7.60;;
66118;SDS011;52912;48.564;9.302;2022-12-05T11:03:55;15.00;;;8.25;;
66118;SDS011;52912;48.564;9.302;2022-12-05T11:06:23;14.35;;;7.22;;
66118;SDS011;52912;48.564;9.302;2022-12-05T11:08:51;13.48;;;7.72;;
66118;SDS011;52912;48.564;9.302;2022-12-05T11:11:18;13.43;;;7.00;;
66118;SDS011;52912;48.564;9.302;2022-12-05T11:13:50;12.25;;;7.28;;
66118;SDS011;52912;48.564;9.302;2022-12-05T11:16:20;15.07;;;6.97;;
66118;SDS011;52912;48.564;9.302;2022-12-05T11:18:49;11.18;;;6.43;;
66118;SDS011;52912;48.564;9.302;2022-12-05T11:21:15;10.40;;;6.57;;
66118;SDS011;52912;48.564;9.302;2022-12-05T11:23:40;11.85;;;6.90;;
66118;SDS011;52912;48.564;9.302;2022-12-05T11:26:13;12.68;;;6.20;;
66118;SDS011;52912;48.564;9.302;2022-12-05T11:28:42;19.92;;;14.82;;
66118;SDS011;52912;48.564;9.302;2022-12-05T11:31:18;54.33;;;35.90;;
66118;SDS011;52912;48.564;9.302;2022-12-05T11:34:01;33.15;;;23.08;;
66118;SDS011;52912;48.564;9.302;2022-12-05T11:36:36;51.38;;;36.22;;
66118;SDS011;52912;48.564;9.302;2022-12-05T11:39:05;15.52;;;8.15;;
66118;SDS011;52912;48.564;9.302;2022-12-05T11:41:37;31.25;;;10.63;;
66118;SDS011;52912;48.564;9.302;2022-12-05T11:44:22;10.43;;;6.70;;
66118;SDS011;52912;48.564;9.302;2022-12-05T11:47:02;36.72;;;12.27;;
66118;SDS011;52912;48.564;9.302;2022-12-05T11:49:48;11.32;;;5.55;;
66118;SDS011;52912;48.564;9.302;2022-12-05T11:52:29;10.52;;;6.22;;
66118;SDS011;52912;48.564;9.302;2022-12-05T11:55:10;11.02;;;6.15;;
66118;SDS011;52912;48.564;9.302;2022-12-05T11:57:45;10.88;;;5.80;;
66118;SDS011;52912;48.564;9.302;2022-12-05T12:06:16;12.38;;;6.35;;
66118;SDS011;52912;48.564;9.302;2022-12-05T12:08:55;9.85;;;5.43;;
66118;SDS011;52912;48.564;9.302;2022-12-05T12:11:31;8.30;;;5.32;;
66118;SDS011;52912;48.564;9.302;2022-12-05T12:14:04;12.25;;;6.03;;
66118;SDS011;52912;48.564;9.302;2022-12-05T12:16:39;8.55;;;5.50;;
66118;SDS011;52912;48.564;9.302;2022-12-05T12:19:14;9.23;;;5.70;;
66118;SDS011;52912;48.564;9.302;2022-12-05T12:21:59;26.27;;;8.80;;
66118;SDS011;52912;48.564;9.302;2022-12-05T12:24:40;18.52;;;7.93;;
66118;SDS011;52912;48.564;9.302;2022-12-05T12:27:25;13.02;;;6.32;;
66118;SDS011;52912;48.564;9.302;2022-12-05T12:29:59;19.08;;;7.47;;
66118;SDS011;52912;48.564;9.302;2022-12-05T12:32:31;23.17;;;8.48;;
66118;SDS011;52912;48.564;9.302;2022-12-05T12:35:13;13.75;;;6.28;;
66118;SDS011;52912;48.564;9.302;2022-12-05T12:37:55;39.15;;;12.23;;
66118;SDS011;52912;48.564;9.302;2022-12-05T12:40:48;15.00;;;7.25;;
66118;SDS011;52912;48.564;9.302;2022-12-05T12:43:27;16.92;;;7.15;;
66118;SDS011;52912;48.564;9.302;2022-12-05T12:46:06;16.05;;;6.75;;
66118;SDS011;52912;48.564;9.302;2022-12-05T12:48:43;10.75;;;5.80;;
66118;SDS011;52912;48.564;9.302;2022-12-05T12:51:27;17.98;;;6.43;;
66118;SDS011;52912;48.564;9.302;2022-12-05T12:54:01;26.75;;;8.10;;
66118;SDS011;52912;48.564;9.302;2022-12-05T12:56:39;17.80;;;6.18;;
66118;SDS011;52912;48.564;9.302;2022-12-05T12:59:15;9.98;;;5.32;;
66118;SDS011;52912;48.564;9.302;2022-12-05T13:01:51;11.98;;;5.72;;
66118;SDS011;52912;48.564;9.302;2022-12-05T13:04:22;13.52;;;6.07;;
66118;SDS011;52912;48.564;9.302;2022-12-05T13:06:53;16.75;;;6.85;;
66118;SDS011;52912;48.564;9.302;2022-12-05T13:09:25;11.75;;;6.00;;
66118;SDS011;52912;48.564;9.302;2022-12-05T13:11:54;9.38;;;4.75;;
66118;SDS011;52912;48.564;9.302;2022-12-05T13:14:25;10.38;;;6.03;;
66118;SDS011;52912;48.564;9.302;2022-12-05T13:16:53;11.38;;;6.80;;
66118;SDS011;52912;48.564;9.302;2022-12-05T13:19:24;14.23;;;9.27;;
66118;SDS011;52912;48.564;9.302;2022-12-05T13:21:52;11.10;;;5.80;;
66118;SDS011;52912;48.564;9.302;2022-12-05T13:24:21;7.60;;;4.75;;
66118;SDS011;52912;48.564;9.302;2022-12-05T13:26:50;8.77;;;4.85;;
66118;SDS011;52912;48.564;9.302;2022-12-05T13:29:20;9.10;;;4.97;;
66118;SDS011;52912;48.564;9.302;2022-12-05T13:31:51;12.15;;;7.88;;
66118;SDS011;52912;48.564;9.302;2022-12-05T13:37:20;7.63;;;4.75;;
66118;SDS011;52912;48.564;9.302;2022-12-05T13:39:51;9.02;;;5.38;;
66118;SDS011;52912;48.564;9.302;2022-12-05T13:42:20;9.55;;;5.72;;
66118;SDS011;52912;48.564;9.302;2022-12-05T13:44:48;8.98;;;4.85;;
66118;SDS011;52912;48.564;9.302;2022-12-05T13:50:07;7.55;;;5.20;;
66118;SDS011;52912;48.564;9.302;2022-12-05T13:52:39;7.78;;;5.47;;
66118;SDS011;52912;48.564;9.302;2022-12-05T13:55:25;8.70;;;5.80;;
66118;SDS011;52912;48.564;9.302;2022-12-05T13:57:53;8.73;;;5.68;;
66118;SDS011;52912;48.564;9.302;2022-12-05T14:00:26;10.40;;;5.45;;
66118;SDS011;52912;48.564;9.302;2022-12-05T14:02:55;8.68;;;5.10;;
66118;SDS011;52912;48.564;9.302;2022-12-05T14:05:34;9.30;;;4.88;;
66118;SDS011;52912;48.564;9.302;2022-12-05T14:13:40;8.40;;;4.85;;
66118;SDS011;52912;48.564;9.302;2022-12-05T14:19:14;7.32;;;4.53;;
66118;SDS011;52912;48.564;9.302;2022-12-05T14:21:59;7.70;;;4.68;;
66118;SDS011;52912;48.564;9.302;2022-12-05T14:24:31;7.13;;;4.20;;
66118;SDS011;52912;48.564;9.302;2022-12-05T14:27:09;5.65;;;3.20;;
66118;SDS011;52912;48.564;9.302;2022-12-05T14:29:44;9.98;;;3.78;;
66118;SDS011;52912;48.564;9.302;2022-12-05T14:32:21;6.32;;;3.72;;
66118;SDS011;52912;48.564;9.302;2022-12-05T14:34:56;7.97;;;4.20;;
66118;SDS011;52912;48.564;9.302;2022-12-05T14:37:26;41.75;;;18.88;;
66118;SDS011;52912;48.564;9.302;2022-12-05T14:39:54;26.30;;;12.40;;
66118;SDS011;52912;48.564;9.302;2022-12-05T14:42:24;17.90;;;9.10;;
66118;SDS011;52912;48.564;9.302;2022-12-05T14:44:57;12.40;;;6.82;;
66118;SDS011;52912;48.564;9.302;2022-12-05T14:47:26;6.65;;;3.65;;
66118;SDS011;52912;48.564;9.302;2022-12-05T14:49:58;6.97;;;3.97;;
66118;SDS011;52912;48.564;9.302;2022-12-05T14:52:25;5.13;;;3.30;;
66118;SDS011;52912;48.564;9.302;2022-12-05T14:54:52;7.63;;;4.82;;
66118;SDS011;52912;48.564;9.302;2022-12-05T14:57:23;5.80;;;3.50;;
66118;SDS011;52912;48.564;9.302;2022-12-05T14:59:50;4.90;;;3.03;;
66118;SDS011;52912;48.564;9.302;2022-12-05T15:02:20;6.22;;;3.78;;
66118;SDS011;52912;48.564;9.302;2022-12-05T15:04:49;5.97;;;3.60;;
66118;SDS011;52912;48.564;9.302;2022-12-05T15:07:18;3.65;;;2.35;;
66118;SDS011;52912;48.564;9.302;2022-12-05T15:09:50;4.93;;;3.08;;